Time;durP1;ratioP1;P1;durP2;ratioP2;P2;SDS_P1;SDS_P2;PMS_P1;PMS_P2;Temp;Humidity;BMP_temperature;BMP_pressure;BME280_temperature;BME280_humidity;BME280_pressure;Samples;Min_cycle;Max_cycle;Signal;HPM_P1;HPM_P2
2023/01/02 03:02:48;;;;;;;8.07;7.57;;;9.50;99.90;;;;;;4933096;23;20235;-79
2023/01/02 03:05:19;;;;;;;7.90;7.40;;;9.50;99.90;;;;;;4920010;29;20245;-79
2023/01/02 03:07:53;;;;;;;8.73;8.23;;;9.50;99.90;;;;;;4919865;29;20207;-80
2023/01/02 03:10:26;;;;;;;8.40;7.90;;;9.60;99.90;;;;;;4918021;29;20735;-80
2023/01/02 03:13:05;;;;;;;8.20;7.70;;;9.60;99.90;;;;;;4899213;29;20591;-79
2023/01/02 03:15:36;;;;;;;8.40;7.90;;;9.60;99.90;;;;;;4897677;29;20643;-79
2023/01/02 03:18:12;;;;;;;8.47;7.97;;;9.50;99.90;;;;;;4900993;29;20208;-80
2023/01/02 03:20:44;;;;;;;8.50;8.00;;;9.60;99.90;;;;;;4898851;29;20271;-79
2023/01/02 03:23:16;;;;;;;8.20;7.70;;;9.70;99.90;;;;;;4899608;29;20198;-79
2023/01/02 03:25:44;;;;;;;8.50;8.00;;;9.70;99.90;;;;;;4899785;29;20566;-79
2023/01/02 03:28:13;;;;;;;9.00;8.40;;;9.70;99.90;;;;;;4899412;29;20284;-80
2023/01/02 03:30:41;;;;;;;8.70;8.17;;;9.60;99.90;;;;;;4898567;29;20580;-80
2023/01/02 03:33:13;;;;;;;9.07;8.47;;;9.60;99.90;;;;;;4900607;29;20256;-79
2023/01/02 03:35:45;;;;;;;8.40;7.90;;;9.60;99.90;;;;;;4899101;29;20716;-78
2023/01/02 03:38:15;;;;;;;8.67;8.10;;;9.60;99.90;;;;;;4900533;29;20204;-80
2023/01/02 03:40:45;;;;;;;8.80;8.20;;;9.50;99.90;;;;;;4899816;29;20476;-80
2023/01/02 03:43:16;;;;;;;9.20;8.60;;;9.50;99.90;;;;;;4899562;29;20205;-79
2023/01/02 03:45:49;;;;;;;9.00;8.40;;;9.40;99.90;;;;;;4899091;29;20197;-78
2023/01/02 03:48:28;;;;;;;8.93;8.33;;;9.40;99.90;;;;;;4900205;29;20200;-79
2023/01/02 03:50:58;;;;;;;8.70;8.20;;;9.30;99.90;;;;;;4899750;29;20225;-79
2023/01/02 03:53:26;;;;;;;8.87;8.37;;;9.30;99.90;;;;;;4898967;29;20767;-78
2023/01/02 03:56:07;;;;;;;9.20;8.70;;;9.30;99.90;;;;;;4901848;29;20220;-79
2023/01/02 03:58:45;;;;;;;9.40;8.80;;;9.20;99.90;;;;;;4899682;29;20394;-80
2023/01/02 04:01:17;;;;;;;9.10;8.50;;;9.20;99.90;;;;;;4895243;29;20311;-79
2023/01/02 04:03:49;;;;;;;9.40;8.80;;;9.10;99.90;;;;;;4900121;29;20260;-79
2023/01/02 04:06:25;;;;;;;9.10;8.50;;;9.20;99.90;;;;;;4898931;29;20204;-80
2023/01/02 04:08:59;;;;;;;8.97;8.37;;;9.20;99.90;;;;;;4900442;29;20224;-79
2023/01/02 04:11:28;;;;;;;9.27;8.67;;;9.20;99.90;;;;;;4897945;29;20236;-79
2023/01/02 04:13:59;;;;;;;10.20;9.50;;;9.20;99.90;;;;;;4898606;29;20228;-79
2023/01/02 04:16:31;;;;;;;9.50;8.90;;;9.10;99.90;;;;;;4898299;29;20201;-80
2023/01/02 04:19:05;;;;;;;9.60;9.00;;;9.00;99.90;;;;;;4897150;29;20216;-79
2023/01/02 04:21:36;;;;;;;9.20;8.50;;;9.00;99.90;;;;;;4898091;29;20231;-80
2023/01/02 04:24:07;;;;;;;10.13;9.43;;;8.90;99.90;;;;;;4895175;29;20209;-79
2023/01/02 04:26:39;;;;;;;9.07;8.43;;;8.80;99.90;;;;;;4898788;29;20674;-78
2023/01/02 04:29:06;;;;;;;8.90;8.13;;;8.70;99.90;;;;;;4899365;29;20200;-80
2023/01/02 04:31:38;;;;;;;9.80;9.10;;;8.70;99.90;;;;;;4897762;29;20310;-79
2023/01/02 04:34:11;;;;;;;10.17;9.37;;;8.60;99.90;;;;;;4898667;29;20220;-79
2023/01/02 04:36:39;;;;;;;9.57;8.87;;;8.60;99.90;;;;;;4896823;29;20201;-79
2023/01/02 04:39:07;;;;;;;10.07;9.27;;;8.50;99.90;;;;;;4897635;29;20628;-80
2023/01/02 04:41:34;;;;;;;9.20;8.50;;;8.50;99.90;;;;;;4897599;29;20307;-79
2023/01/02 04:44:01;;;;;;;9.43;8.73;;;8.40;99.90;;;;;;4899651;29;20260;-79
2023/01/02 04:46:29;;;;;;;9.80;9.00;;;8.30;99.90;;;;;;4890769;29;20201;-78
2023/01/02 04:48:56;;;;;;;9.63;8.90;;;8.30;99.90;;;;;;4894115;29;20547;-79
2023/01/02 04:51:25;;;;;;;9.43;8.73;;;8.40;99.90;;;;;;4897360;29;20272;-79
2023/01/02 04:53:53;;;;;;;9.93;9.23;;;8.40;99.90;;;;;;4897977;29;20212;-79
2023/01/02 04:56:20;;;;;;;9.40;8.70;;;8.50;99.90;;;;;;4897758;29;20216;-79
2023/01/02 04:58:47;;;;;;;9.57;8.87;;;8.40;99.90;;;;;;4895707;29;20713;-80
2023/01/02 05:01:17;;;;;;;11.47;10.60;;;8.50;99.90;;;;;;4899038;29;20273;-79
2023/01/02 05:03:45;;;;;;;10.10;9.50;;;8.50;99.90;;;;;;4900000;29;20212;-79
2023/01/02 05:06:12;;;;;;;10.27;9.47;;;8.40;99.90;;;;;;4897823;29;20200;-79
2023/01/02 05:08:41;;;;;;;10.10;9.40;;;8.40;99.90;;;;;;4898789;29;20961;-78
2023/01/02 05:11:10;;;;;;;9.97;9.27;;;8.50;99.90;;;;;;4899597;29;20248;-78
2023/01/02 05:13:36;;;;;;;10.53;9.73;;;8.40;99.90;;;;;;4897282;29;20208;-78
2023/01/02 05:16:04;;;;;;;10.03;9.33;;;8.40;99.90;;;;;;4897216;29;20640;-80
2023/01/02 05:18:32;;;;;;;10.13;9.43;;;8.50;99.90;;;;;;4902662;29;20619;-79
2023/01/02 05:21:03;;;;;;;10.07;9.27;;;8.50;99.90;;;;;;4898983;29;20771;-79
2023/01/02 05:23:47;;;;;;;10.30;9.50;;;8.50;99.90;;;;;;4899661;29;20717;-79
2023/01/02 05:26:17;;;;;;;9.67;9.07;;;8.40;99.90;;;;;;4898516;29;20196;-79
2023/01/02 05:28:44;;;;;;;10.10;9.30;;;8.40;99.90;;;;;;4897083;29;20252;-79
2023/01/02 05:31:11;;;;;;;10.00;9.30;;;8.40;99.90;;;;;;4898888;29;20233;-79
2023/01/02 05:33:38;;;;;;;9.53;8.93;;;8.40;99.90;;;;;;4898206;29;20694;-80
2023/01/02 05:36:06;;;;;;;10.10;9.40;;;8.40;99.90;;;;;;4899907;29;20655;-80
2023/01/02 05:38:34;;;;;;;10.10;9.30;;;8.40;99.90;;;;;;4899944;29;20283;-80
2023/01/02 05:41:02;;;;;;;9.50;8.90;;;8.40;99.90;;;;;;4897823;29;20280;-80
2023/01/02 05:43:34;;;;;;;9.97;9.27;;;8.40;99.90;;;;;;4898908;29;20232;-79
2023/01/02 05:46:07;;;;;;;9.80;9.10;;;8.40;99.90;;;;;;4899233;29;20200;-80
2023/01/02 05:48:34;;;;;;;9.90;9.20;;;8.40;99.90;;;;;;4892991;29;20200;-80
2023/01/02 05:51:01;;;;;;;9.90;9.10;;;8.40;99.90;;;;;;4897405;29;20240;-77
2023/01/02 05:53:28;;;;;;;10.00;9.30;;;8.40;99.90;;;;;;4891249;29;20614;-78
2023/01/02 05:55:55;;;;;;;9.93;9.30;;;8.30;99.90;;;;;;4899842;29;20229;-80
2023/01/02 05:58:21;;;;;;;11.13;10.00;;;8.30;99.90;;;;;;4899075;29;20702;-81
2023/01/02 06:00:50;;;;;;;9.77;9.10;;;8.30;99.90;;;;;;4900083;29;20224;-81
2023/01/02 06:03:16;;;;;;;10.17;9.47;;;8.20;99.90;;;;;;4899653;29;20245;-81
2023/01/02 06:05:43;;;;;;;10.70;10.00;;;8.20;99.90;;;;;;4900554;29;20638;-82
2023/01/02 06:08:10;;;;;;;10.90;10.20;;;8.20;99.90;;;;;;4899945;29;20631;-81
2023/01/02 06:10:37;;;;;;;11.10;10.30;;;8.20;99.90;;;;;;4899365;29;20220;-81
2023/01/02 06:13:03;;;;;;;10.40;9.70;;;8.20;99.90;;;;;;4898484;29;20280;-80
2023/01/02 06:15:30;;;;;;;10.53;9.93;;;8.20;99.90;;;;;;4898281;29;20217;-80
2023/01/02 06:17:59;;;;;;;10.27;9.67;;;8.20;99.90;;;;;;4898913;29;20248;-81
2023/01/02 06:20:26;;;;;;;10.30;9.63;;;8.20;99.90;;;;;;4897417;29;20204;-81
2023/01/02 06:22:53;;;;;;;10.90;10.00;;;8.30;99.90;;;;;;4899883;29;20256;-80
2023/01/02 06:25:19;;;;;;;10.70;9.90;;;8.30;99.90;;;;;;4901479;29;20204;-80
2023/01/02 06:27:46;;;;;;;10.83;10.13;;;8.30;99.90;;;;;;4902526;29;20737;-80
2023/01/02 06:30:13;;;;;;;10.77;10.17;;;8.30;99.90;;;;;;4902386;29;20200;-83
2023/01/02 06:32:40;;;;;;;10.40;9.70;;;8.40;99.90;;;;;;4903183;29;20232;-82
2023/01/02 06:35:09;;;;;;;11.07;10.07;;;8.30;99.90;;;;;;4901815;29;20244;-84
2023/01/02 06:37:36;;;;;;;10.63;9.93;;;8.30;99.90;;;;;;4903564;29;20229;-80
2023/01/02 06:40:03;;;;;;;10.60;9.80;;;8.30;99.90;;;;;;4901438;29;20209;-81
2023/01/02 06:42:29;;;;;;;10.43;9.73;;;8.30;99.90;;;;;;4903408;29;20221;-82
2023/01/02 06:44:56;;;;;;;10.63;9.90;;;8.20;99.90;;;;;;4901982;29;20366;-81
2023/01/02 06:47:23;;;;;;;11.00;10.30;;;8.20;99.90;;;;;;4900936;29;20236;-81
2023/01/02 06:49:50;;;;;;;11.27;10.30;;;8.20;99.90;;;;;;4901419;29;20566;-81
2023/01/02 06:52:18;;;;;;;11.00;10.20;;;8.20;99.90;;;;;;4901961;29;20229;-81
2023/01/02 06:54:45;;;;;;;10.70;10.00;;;8.10;99.90;;;;;;4900772;29;20247;-80
2023/01/02 06:57:11;;;;;;;10.40;9.80;;;8.10;99.90;;;;;;4903978;29;20553;-79
2023/01/02 06:59:38;;;;;;;10.63;9.87;;;8.10;99.90;;;;;;4902484;29;20193;-81
2023/01/02 07:02:05;;;;;;;11.90;11.10;;;8.10;99.90;;;;;;4904607;29;20228;-81
2023/01/02 07:04:32;;;;;;;10.73;10.03;;;8.10;99.90;;;;;;4903587;29;20196;-80
2023/01/02 07:07:00;;;;;;;11.27;10.47;;;8.20;99.90;;;;;;4904117;29;20257;-80
2023/01/02 07:09:28;;;;;;;10.80;10.10;;;8.20;99.90;;;;;;4903826;29;20197;-80
2023/01/02 07:11:55;;;;;;;11.03;10.33;;;8.20;99.90;;;;;;4903229;29;20705;-80
2023/01/02 07:14:22;;;;;;;11.47;10.67;;;8.20;99.90;;;;;;4902850;29;20220;-80
2023/01/02 07:16:48;;;;;;;11.07;10.37;;;8.30;99.90;;;;;;4900958;29;20252;-81
2023/01/02 07:19:15;;;;;;;10.43;9.73;;;8.40;99.90;;;;;;4900710;29;20741;-81
2023/01/02 07:21:42;;;;;;;9.73;9.13;;;8.40;99.90;;;;;;4900962;29;20228;-81
2023/01/02 07:24:12;;;;;;;9.70;9.10;;;8.40;99.90;;;;;;4902260;29;20201;-82
2023/01/02 07:26:40;;;;;;;9.97;9.37;;;8.40;99.90;;;;;;4901772;29;20224;-81
2023/01/02 07:29:07;;;;;;;10.20;9.37;;;8.50;99.90;;;;;;4902319;29;20746;-82
2023/01/02 07:31:34;;;;;;;11.00;10.20;;;8.50;99.90;;;;;;4902257;29;20216;-80
2023/01/02 07:34:01;;;;;;;10.63;9.83;;;8.40;99.90;;;;;;4897913;29;20564;-85
2023/01/02 07:36:28;;;;;;;11.33;10.53;;;8.40;99.90;;;;;;4896737;29;20856;-85
2023/01/02 07:38:56;;;;;;;10.30;9.50;;;8.40;99.90;;;;;;4900233;29;20225;-86
2023/01/02 07:41:24;;;;;;;10.30;9.60;;;8.40;99.90;;;;;;4899861;29;20224;-85
2023/01/02 07:44:24;;;;;;;10.50;9.80;;;8.40;99.90;;;;;;4900406;29;20319;-86
2023/01/02 07:46:50;;;;;;;10.50;9.63;;;8.50;99.90;;;;;;4896831;29;20199;-81
2023/01/02 07:49:18;;;;;;;10.27;9.67;;;8.40;99.90;;;;;;4901980;29;20232;-82
2023/01/02 07:51:44;;;;;;;10.73;9.67;;;8.50;99.90;;;;;;4901625;29;20234;-82
2023/01/02 07:54:11;;;;;;;10.30;9.60;;;8.50;99.90;;;;;;4902919;29;20208;-82
2023/01/02 07:56:38;;;;;;;10.37;9.60;;;8.50;99.90;;;;;;4902054;29;20621;-81
2023/01/02 07:59:05;;;;;;;9.87;9.27;;;8.50;99.90;;;;;;4894660;29;20609;-81
2023/01/02 08:01:33;;;;;;;10.17;9.47;;;8.50;99.90;;;;;;4905518;29;20236;-81
2023/01/02 08:04:03;;;;;;;10.27;9.57;;;8.60;99.90;;;;;;4901993;29;20243;-81
2023/01/02 08:06:29;;;;;;;10.07;9.40;;;8.60;99.90;;;;;;4898938;29;20689;-79
2023/01/02 08:08:57;;;;;;;9.90;9.20;;;8.60;99.90;;;;;;4900436;29;20193;-79
2023/01/02 08:11:24;;;;;;;10.47;9.67;;;8.60;99.90;;;;;;4897913;29;20282;-78
2023/01/02 08:13:51;;;;;;;10.27;9.53;;;8.60;99.90;;;;;;4898867;29;20196;-79
2023/01/02 08:16:19;;;;;;;10.90;10.10;;;8.60;99.90;;;;;;4896101;29;20264;-79
2023/01/02 08:18:50;;;;;;;10.83;9.83;;;8.70;99.90;;;;;;4895012;29;20213;-83
2023/01/02 08:21:17;;;;;;;10.40;9.63;;;8.80;99.90;;;;;;4896607;29;20307;-79
2023/01/02 08:23:44;;;;;;;10.33;9.63;;;8.80;99.90;;;;;;4897210;29;20205;-78
2023/01/02 08:26:11;;;;;;;10.80;10.00;;;8.90;99.90;;;;;;4899460;29;20268;-78
2023/01/02 08:28:41;;;;;;;9.80;9.07;;;8.90;99.90;;;;;;4897551;29;20204;-79
2023/01/02 08:31:10;;;;;;;10.00;9.30;;;9.00;99.90;;;;;;4894200;29;20247;-79
2023/01/02 08:33:37;;;;;;;10.13;9.33;;;9.00;99.90;;;;;;4898294;29;20205;-79
2023/01/02 08:36:05;;;;;;;10.37;9.57;;;9.10;99.90;;;;;;4898240;29;20276;-79
2023/01/02 08:38:32;;;;;;;10.10;9.40;;;9.10;99.90;;;;;;4897292;29;20212;-79
2023/01/02 08:40:59;;;;;;;10.17;9.37;;;9.10;99.90;;;;;;4898556;29;20221;-78
2023/01/02 08:43:26;;;;;;;10.60;9.70;;;9.20;99.90;;;;;;4897638;29;20204;-80
2023/01/02 08:45:53;;;;;;;10.60;9.60;;;9.30;99.90;;;;;;4897565;29;20212;-79
2023/01/02 08:48:21;;;;;;;10.50;9.70;;;9.40;99.90;;;;;;4897384;29;20208;-79
2023/01/02 08:50:48;;;;;;;9.90;9.20;;;9.50;99.90;;;;;;4897968;29;20780;-79
2023/01/02 08:53:16;;;;;;;9.77;9.07;;;9.60;99.90;;;;;;4900210;29;20692;-80
2023/01/02 08:55:43;;;;;;;10.10;9.40;;;9.70;99.90;;;;;;4900692;29;20371;-81
2023/01/02 08:58:10;;;;;;;10.03;9.33;;;9.80;99.90;;;;;;4897077;29;20218;-81
2023/01/02 09:00:37;;;;;;;10.40;9.70;;;10.00;99.90;;;;;;4892496;29;20573;-80
2023/01/02 09:03:04;;;;;;;11.27;10.37;;;10.10;99.90;;;;;;4900200;29;20257;-81
2023/01/02 09:05:31;;;;;;;11.13;10.07;;;10.20;99.90;;;;;;4899789;29;20569;-80
2023/01/02 09:07:58;;;;;;;10.00;9.03;;;10.20;99.90;;;;;;4894662;29;20264;-82
2023/01/02 09:10:26;;;;;;;10.27;9.57;;;10.20;99.90;;;;;;4895566;29;20200;-80
2023/01/02 09:12:53;;;;;;;10.37;9.30;;;10.10;99.90;;;;;;4901338;29;20213;-80
2023/01/02 09:15:20;;;;;;;11.00;10.10;;;10.00;99.90;;;;;;4893415;29;20213;-81
2023/01/02 09:17:47;;;;;;;12.47;10.90;;;10.00;99.90;;;;;;4889033;29;20661;-80
2023/01/02 09:20:14;;;;;;;11.20;10.40;;;10.00;99.90;;;;;;4892072;29;20448;-81
2023/01/02 09:22:41;;;;;;;8.87;7.87;;;10.10;99.90;;;;;;4897729;29;20273;-80
2023/01/02 09:25:08;;;;;;;8.03;7.10;;;10.20;99.90;;;;;;4898452;29;20675;-80
2023/01/02 09:27:36;;;;;;;12.37;11.23;;;10.10;99.90;;;;;;4900930;29;20229;-81
2023/01/02 09:30:04;;;;;;;11.87;10.90;;;10.10;99.90;;;;;;4900146;29;20220;-81
2023/01/02 09:32:31;;;;;;;11.80;10.97;;;9.90;99.90;;;;;;4897243;29;20229;-81
2023/01/02 09:34:57;;;;;;;11.77;10.77;;;9.80;99.90;;;;;;4897577;29;20741;-80
2023/01/02 09:37:24;;;;;;;11.40;10.50;;;9.80;99.90;;;;;;4897767;29;20230;-81
2023/01/02 09:39:51;;;;;;;10.87;10.07;;;9.80;99.90;;;;;;4896910;29;20224;-81
2023/01/02 09:42:18;;;;;;;10.63;9.73;;;9.90;99.90;;;;;;4897065;29;20798;-80
2023/01/02 09:44:49;;;;;;;12.30;11.07;;;9.90;99.90;;;;;;4898260;29;20199;-80
2023/01/02 09:47:19;;;;;;;11.73;10.50;;;10.00;99.90;;;;;;4899829;29;20229;-80
2023/01/02 09:49:51;;;;;;;11.87;10.90;;;10.10;99.90;;;;;;4896417;29;20262;-81
2023/01/02 09:52:22;;;;;;;11.80;10.80;;;10.20;99.90;;;;;;4898737;29;20762;-81
2023/01/02 09:54:49;;;;;;;11.80;10.90;;;10.40;99.90;;;;;;4897235;29;20279;-81
2023/01/02 09:57:27;;;;;;;12.03;11.13;;;10.40;99.90;;;;;;4898396;29;20214;-81
2023/01/02 10:00:02;;;;;;;11.00;10.10;;;10.50;99.90;;;;;;4900252;29;20208;-81
2023/01/02 10:02:46;;;;;;;11.23;10.33;;;10.70;99.90;;;;;;4899351;29;20229;-81
2023/01/02 10:05:47;;;;;;;11.90;10.93;;;10.80;99.90;;;;;;4902231;29;20740;-81
2023/01/02 10:08:25;;;;;;;11.03;10.23;;;10.90;99.90;;;;;;4900881;29;20270;-80
2023/01/02 10:10:57;;;;;;;6.80;5.07;;;11.00;99.90;;;;;;4899517;29;20651;-80
2023/01/02 10:13:30;;;;;;;6.03;5.53;;;11.10;99.90;;;;;;4900884;29;20203;-80
2023/01/02 10:16:01;;;;;;;9.67;8.87;;;11.10;99.90;;;;;;4902372;29;20223;-81
2023/01/02 10:18:32;;;;;;;6.10;5.50;;;11.20;99.90;;;;;;4897989;29;20194;-81
2023/01/02 10:21:03;;;;;;;6.33;5.73;;;11.20;99.90;;;;;;4900949;29;20719;-79
2023/01/02 10:23:36;;;;;;;5.77;5.17;;;11.30;99.90;;;;;;4893154;29;20212;-79
2023/01/02 10:26:05;;;;;;;7.70;6.40;;;11.40;99.90;;;;;;4903671;29;20242;-80
2023/01/02 10:28:41;;;;;;;8.13;7.43;;;11.50;99.90;;;;;;4901848;29;20211;-80
2023/01/02 10:31:13;;;;;;;7.57;6.73;;;11.60;99.90;;;;;;4904666;29;20286;-79
2023/01/02 10:33:45;;;;;;;9.00;8.23;;;11.60;99.90;;;;;;4903012;29;20267;-78
2023/01/02 10:36:22;;;;;;;9.13;8.37;;;11.60;99.90;;;;;;4901352;29;20240;-78
2023/01/02 10:38:49;;;;;;;7.00;6.40;;;11.70;99.90;;;;;;4899675;29;20203;-79
2023/01/02 10:41:16;;;;;;;7.70;6.00;;;11.70;99.90;;;;;;4899454;29;20306;-78
2023/01/02 10:43:47;;;;;;;8.30;7.60;;;11.70;99.90;;;;;;4898966;29;20204;-78
2023/01/02 10:46:15;;;;;;;8.70;7.80;;;11.80;99.90;;;;;;4900577;29;20200;-80
2023/01/02 10:48:43;;;;;;;9.57;8.67;;;11.90;99.90;;;;;;4904043;29;20231;-80
2023/01/02 10:51:14;;;;;;;8.73;8.03;;;11.90;99.90;;;;;;4901692;29;20295;-81
2023/01/02 10:53:41;;;;;;;9.10;8.30;;;11.90;99.90;;;;;;4901682;29;20204;-80
2023/01/02 10:56:17;;;;;;;9.40;8.60;;;11.90;99.90;;;;;;4897254;29;20277;-79
2023/01/02 10:58:46;;;;;;;8.43;7.73;;;11.80;99.90;;;;;;4903470;29;20203;-80
2023/01/02 11:01:17;;;;;;;9.63;8.83;;;11.80;99.90;;;;;;4901130;29;20326;-79
2023/01/02 11:03:45;;;;;;;9.10;8.33;;;11.80;99.90;;;;;;4901339;29;20212;-79
2023/01/02 11:06:20;;;;;;;9.00;8.30;;;11.80;99.90;;;;;;4902240;29;20214;-79
2023/01/02 11:08:57;;;;;;;8.37;7.63;;;11.80;99.90;;;;;;4899459;29;20211;-80
2023/01/02 11:11:25;;;;;;;8.23;7.53;;;11.80;99.90;;;;;;4900018;29;20259;-79
2023/01/02 11:13:54;;;;;;;7.87;7.20;;;11.90;99.90;;;;;;4900448;29;20260;-79
2023/01/02 11:16:26;;;;;;;7.37;6.70;;;11.90;99.90;;;;;;4903053;29;20212;-80
2023/01/02 11:18:54;;;;;;;7.13;6.53;;;12.00;99.90;;;;;;4900738;29;20637;-79
2023/01/02 11:21:28;;;;;;;8.43;7.40;;;12.20;99.90;;;;;;4900097;29;20316;-80
2023/01/02 11:23:59;;;;;;;8.20;7.50;;;12.30;99.90;;;;;;4899435;29;20208;-78
2023/01/02 11:26:28;;;;;;;7.83;7.13;;;12.30;99.90;;;;;;4899845;29;20196;-77
2023/01/02 11:28:56;;;;;;;7.70;7.10;;;12.40;99.90;;;;;;4895585;29;20616;-80
2023/01/02 11:31:24;;;;;;;7.40;6.80;;;12.50;99.90;;;;;;4898457;29;20531;-77
2023/01/02 11:33:51;;;;;;;7.40;6.80;;;12.60;99.90;;;;;;4899913;29;20197;-76
2023/01/02 11:36:19;;;;;;;7.53;6.93;;;12.80;99.90;;;;;;4900847;29;20217;-80
2023/01/02 11:38:48;;;;;;;7.63;7.00;;;13.00;99.90;;;;;;4900995;29;20253;-80
2023/01/02 11:44:16;;;;;;;6.73;5.70;;;13.50;99.90;;;;;;4894374;29;20205;-80
2023/01/02 11:46:45;;;;;;;5.80;5.40;;;13.70;99.90;;;;;;4900832;29;20332;-80
2023/01/02 11:49:15;;;;;;;6.10;5.60;;;13.90;99.90;;;;;;4898942;29;20204;-80
2023/01/02 11:51:42;;;;;;;6.60;5.20;;;14.00;99.90;;;;;;4898573;29;20224;-80
2023/01/02 11:54:15;;;;;;;5.93;5.43;;;14.00;99.90;;;;;;4900487;29;20233;-80
2023/01/02 11:56:44;;;;;;;7.20;5.60;;;14.00;99.90;;;;;;4898878;29;20221;-80
2023/01/02 11:59:17;;;;;;;6.17;5.43;;;14.00;99.90;;;;;;4900622;29;20677;-80
2023/01/02 12:01:53;;;;;;;6.17;5.60;;;14.00;99.90;;;;;;4897883;29;20284;-79
2023/01/02 12:04:23;;;;;;;7.73;6.87;;;14.00;99.90;;;;;;4900870;29;20251;-79
2023/01/02 12:07:19;;;;;;;7.03;6.53;;;14.10;99.90;;;;;;4901909;29;20212;-80
2023/01/02 12:09:56;;;;;;;7.77;7.17;;;14.20;99.90;;;;;;4894186;29;20200;-79
2023/01/02 12:12:36;;;;;;;6.63;5.97;;;14.20;99.90;;;;;;4897737;29;20295;-79
2023/01/02 12:15:33;;;;;;;8.40;7.50;;;14.20;99.90;;;;;;4897748;29;20212;-79
2023/01/02 12:18:12;;;;;;;5.53;4.50;;;14.30;99.90;;;;;;4895284;29;20270;-79
2023/01/02 12:20:44;;;;;;;5.70;3.70;;;14.40;99.90;;;;;;4900809;29;20193;-80
2023/01/02 12:23:31;;;;;;;5.33;3.30;;;14.60;99.90;;;;;;4899229;29;20690;-80
2023/01/02 12:26:11;;;;;;;5.93;3.23;;;14.80;99.90;;;;;;4899297;29;20261;-80
2023/01/02 12:29:03;;;;;;;7.53;3.00;;;15.10;99.90;;;;;;4899822;29;20209;-79
2023/01/02 12:32:05;;;;;;;6.70;3.10;;;15.20;99.90;;;;;;4857112;29;20234;-80
2023/01/02 12:34:49;;;;;;;3.67;3.00;;;15.40;99.90;;;;;;4900231;29;20198;-80
2023/01/02 12:37:30;;;;;;;5.23;2.90;;;15.50;99.90;;;;;;4897838;29;20704;-80
2023/01/02 12:40:24;;;;;;;4.67;3.43;;;15.60;99.90;;;;;;4898626;29;20207;-79
2023/01/02 12:43:12;;;;;;;3.97;3.60;;;15.60;99.90;;;;;;4900802;29;20266;-80
2023/01/02 12:45:47;;;;;;;7.90;6.20;;;15.70;99.90;;;;;;4898377;29;20198;-79
2023/01/02 12:48:30;;;;;;;6.77;6.20;;;15.70;99.90;;;;;;4898030;29;20664;-80
2023/01/02 12:51:07;;;;;;;4.47;3.60;;;15.80;99.90;;;;;;4898746;29;20295;-80
2023/01/02 12:53:57;;;;;;;6.23;3.50;;;15.90;99.90;;;;;;4891949;29;20200;-80
2023/01/02 12:56:34;;;;;;;8.10;6.20;;;15.90;99.90;;;;;;4898525;29;20203;-81
2023/01/02 12:59:17;;;;;;;6.23;4.03;;;16.00;99.90;;;;;;4901879;29;20214;-85
2023/01/02 13:01:51;;;;;;;6.43;5.93;;;16.00;99.90;;;;;;4901415;29;20766;-85
2023/01/02 13:04:21;;;;;;;7.07;5.83;;;16.00;99.90;;;;;;4896693;29;20215;-79
2023/01/02 13:06:54;;;;;;;6.87;4.30;;;16.10;99.90;;;;;;4897824;29;20255;-79
2023/01/02 13:09:28;;;;;;;6.93;3.23;;;16.00;99.90;;;;;;4890345;29;20213;-79
2023/01/02 13:12:01;;;;;;;7.17;3.70;;;16.00;99.90;;;;;;4894903;29;20306;-80
2023/01/02 13:14:36;;;;;;;8.87;7.97;;;15.90;99.90;;;;;;4895585;29;20671;-79
2023/01/02 13:17:17;;;;;;;8.90;8.30;;;15.90;99.90;;;;;;4895114;29;20264;-78
2023/01/02 13:19:53;;;;;;;9.13;8.43;;;15.90;99.90;;;;;;4888604;29;20693;-79
2023/01/02 13:22:31;;;;;;;9.17;8.47;;;15.90;99.90;;;;;;4885174;29;20800;-80
2023/01/02 13:24:59;;;;;;;10.23;9.37;;;15.90;99.90;;;;;;4892803;29;20207;-79
2023/01/02 13:27:26;;;;;;;8.53;7.93;;;15.90;99.90;;;;;;4895243;29;20615;-80
2023/01/02 13:29:53;;;;;;;8.83;8.13;;;15.90;99.90;;;;;;4896305;29;20204;-80
2023/01/02 13:32:28;;;;;;;9.27;8.57;;;15.80;99.90;;;;;;4896197;29;20256;-80
2023/01/02 13:34:58;;;;;;;8.90;8.10;;;15.80;99.90;;;;;;4898232;29;20200;-80
2023/01/02 13:37:28;;;;;;;8.60;8.00;;;15.70;99.90;;;;;;4898208;29;20211;-80
2023/01/02 13:39:57;;;;;;;5.80;5.20;;;15.70;99.90;;;;;;4897868;29;20196;-80
2023/01/02 13:45:18;;;;;;;8.97;8.27;;;15.60;99.90;;;;;;4896609;29;20206;-80
2023/01/02 13:47:51;;;;;;;9.23;8.43;;;15.50;99.90;;;;;;4898289;29;20196;-79
2023/01/02 13:50:23;;;;;;;9.10;8.33;;;15.50;99.90;;;;;;4897212;29;20201;-79
2023/01/02 13:53:04;;;;;;;10.23;9.50;;;15.50;99.90;;;;;;4897947;29;20199;-80
2023/01/02 13:55:33;;;;;;;10.10;9.20;;;15.50;99.90;;;;;;4896298;29;20205;-79
2023/01/02 13:58:27;;;;;;;9.57;8.67;;;15.40;99.90;;;;;;4897865;29;20239;-80
2023/01/02 14:00:56;;;;;;;9.73;8.87;;;15.40;99.90;;;;;;4893325;29;20262;-80
2023/01/02 14:03:35;;;;;;;9.30;8.60;;;15.40;99.90;;;;;;4891129;29;21001;-79
2023/01/02 14:06:04;;;;;;;9.80;8.90;;;15.30;99.90;;;;;;4901395;29;20219;-79
2023/01/02 14:08:33;;;;;;;9.13;8.33;;;15.30;99.90;;;;;;4888776;29;20200;-80
2023/01/02 14:11:01;;;;;;;9.33;8.53;;;15.20;99.90;;;;;;4896574;29;20350;-79
2023/01/02 14:13:34;;;;;;;10.43;9.43;;;15.20;99.90;;;;;;4888694;29;20625;-79
2023/01/02 14:16:34;;;;;;;9.93;9.07;;;15.10;99.90;;;;;;4897420;29;20208;-79
2023/01/02 14:19:15;;;;;;;9.50;8.80;;;15.10;99.90;;;;;;4892659;29;20232;-79
2023/01/02 14:21:45;;;;;;;9.90;9.10;;;14.90;99.90;;;;;;4883875;29;20224;-80
2023/01/02 14:24:30;;;;;;;10.53;9.73;;;14.90;99.90;;;;;;4898954;29;20317;-79
2023/01/02 14:26:59;;;;;;;8.57;7.93;;;14.80;99.90;;;;;;4897835;29;20301;-80
2023/01/02 14:29:27;;;;;;;3.90;3.50;;;14.80;99.90;;;;;;4895418;29;20232;-78
2023/01/02 14:32:05;;;;;;;2.93;2.60;;;14.70;99.90;;;;;;4895815;29;20584;-79
2023/01/02 14:34:33;;;;;;;2.87;2.60;;;14.70;99.90;;;;;;4892079;29;20614;-79
2023/01/02 14:37:01;;;;;;;3.93;3.00;;;14.60;99.90;;;;;;4895420;29;20214;-79
2023/01/02 14:39:35;;;;;;;5.03;4.30;;;14.60;99.90;;;;;;4890718;29;20206;-80
2023/01/02 14:45:16;;;;;;;8.50;7.90;;;14.40;99.90;;;;;;4898630;29;20290;-77
2023/01/02 14:47:48;;;;;;;4.80;4.40;;;14.30;99.90;;;;;;4900606;29;20206;-79
2023/01/02 14:50:20;;;;;;;4.97;4.37;;;14.30;99.90;;;;;;4898673;29;20212;-79
2023/01/02 14:52:52;;;;;;;4.57;4.23;;;14.20;99.90;;;;;;4899723;29;20310;-78
2023/01/02 14:55:24;;;;;;;4.70;4.20;;;14.20;99.90;;;;;;4901890;29;20269;-79
2023/01/02 14:57:56;;;;;;;5.70;4.67;;;14.10;99.90;;;;;;4899608;29;20227;-79
2023/01/02 15:00:30;;;;;;;5.67;4.70;;;14.10;99.90;;;;;;4900135;29;20230;-78
2023/01/02 15:03:16;;;;;;;5.53;4.80;;;14.00;99.90;;;;;;4898755;29;20212;-79
2023/01/02 15:05:50;;;;;;;8.10;7.10;;;14.00;99.90;;;;;;4894917;29;20206;-77
2023/01/02 15:08:20;;;;;;;7.07;6.43;;;14.00;99.90;;;;;;4891145;29;20202;-79
2023/01/02 15:10:57;;;;;;;6.60;5.50;;;13.90;99.90;;;;;;4897709;29;20268;-78
2023/01/02 15:13:26;;;;;;;7.37;6.77;;;13.90;99.90;;;;;;4899248;29;20255;-79
2023/01/02 15:15:56;;;;;;;6.73;6.13;;;13.80;99.90;;;;;;4899730;29;20206;-79
2023/01/02 15:18:26;;;;;;;10.40;9.50;;;13.80;99.90;;;;;;4900022;29;20231;-78
2023/01/02 15:20:54;;;;;;;8.90;8.20;;;13.70;99.90;;;;;;4900996;29;20773;-79
2023/01/02 15:23:22;;;;;;;8.23;7.53;;;13.70;99.90;;;;;;4899705;29;20206;-80
2023/01/02 15:25:50;;;;;;;6.83;6.23;;;13.60;99.90;;;;;;4894236;29;20587;-79
2023/01/02 15:28:26;;;;;;;7.03;6.37;;;13.50;99.90;;;;;;4896827;29;20308;-78
2023/01/02 15:35:17;;;;;;;9.70;9.00;;;13.50;99.90;;;;;;4770215;30;20204;-81
2023/01/02 15:37:56;;;;;;;10.37;9.30;;;13.40;99.90;;;;;;4761460;29;20225;-81
2023/01/02 15:46:22;;;;;;;8.53;6.40;;;13.30;99.90;;;;;;4900445;29;20210;-81
2023/01/02 15:49:28;;;;;;;9.77;7.90;;;13.20;99.90;;;;;;4903683;29;20555;-81
2023/01/02 15:52:33;;;;;;;;;;;;;;;;;;;;;
2023/01/02 15:59:21;;;;;;;11.00;9.03;;;13.10;99.90;;;;;;4900181;29;20275;-81
2023/01/02 16:02:36;;;;;;;10.90;9.13;;;13.00;99.90;;;;;;4894318;29;20240;-81
2023/01/02 16:09:37;;;;;;;10.10;9.17;;;13.00;99.90;;;;;;4872480;29;20207;-79
2023/01/02 16:12:20;;;;;;;10.33;9.20;;;12.90;99.90;;;;;;4897125;29;20232;-81
2023/01/02 16:14:51;;;;;;;9.70;8.80;;;12.90;99.90;;;;;;4894879;29;20240;-81
2023/01/02 16:17:23;;;;;;;9.53;8.73;;;12.90;99.90;;;;;;4899199;29;20215;-81
2023/01/02 16:19:53;;;;;;;9.63;8.73;;;12.90;99.90;;;;;;4898431;29;20252;-81
2023/01/02 16:22:23;;;;;;;9.57;8.77;;;12.80;99.90;;;;;;4899981;29;20280;-82
2023/01/02 16:24:57;;;;;;;9.83;9.03;;;12.90;99.90;;;;;;4899673;29;20205;-82
2023/01/02 16:27:27;;;;;;;10.37;8.50;;;12.80;99.90;;;;;;4899742;29;20260;-82
2023/01/02 16:29:55;;;;;;;9.53;8.63;;;12.80;99.90;;;;;;4900648;29;20674;-83
2023/01/02 16:32:26;;;;;;;9.37;8.47;;;12.80;99.90;;;;;;4900967;29;20236;-82
2023/01/02 16:35:02;;;;;;;8.90;8.30;;;12.70;99.90;;;;;;4898575;29;20212;-79
2023/01/02 16:37:37;;;;;;;9.10;8.40;;;12.60;99.90;;;;;;4898889;29;20287;-79
2023/01/02 16:40:47;;;;;;;9.17;8.37;;;12.60;99.90;;;;;;4897323;29;20207;-78